Navarre, MN (55392)

12:13 PM CDT on August 30, 2016 (GMT -0500)
Long Lake | | Change Station

Elev 1004 ft 44.99 °N, 93.56 °W | Updated 22 seconds ago

Clear
Clear
73.0 °F
Feels Like 77 °F
N
0.0
Wind Variable Wind from NE
Gusts 0.0 mph

Today
High -- | Low -- °F
--% Chance of Precip.
Yesterday
High -- | Low -- °F
Precip. -- in
Pressure 30.18 in
Visibility -9999.0 miles
Clouds Clear
Heat Index 77 °F
Dew Point 55 °F
Humidity 54%
Rainfall 0.00 in
Snow Depth Not available.
6:34 AM 7:53 PM
Waning Crescent, 3% visible
METAR KFCM 301653Z 35004KT CLR 24/17 A3019 RMK AO2 SLP220 T02390172 $
Pressure 30.18 in
Visibility -9999.0 miles
Clouds Clear
Heat Index 77 °F
Dew Point 55 °F
Humidity 54%
Rainfall 0.00 in
Snow Depth Not available.
6:34 AM 7:53 PM
Waning Crescent, 3% visible
METAR KFCM 301653Z 35004KT CLR 24/17 A3019 RMK AO2 SLP220 T02390172 $

10-Day Weather Forecast

Almanac

Astronomy

Aug. 30, 2016 Rise Set
Actual Time
Civil Twilight
Nautical Twilight
Astronomical Twilight
Moon
Length of Visible Light
Length of Day
Tomorrow will be .
, % of the Moon is Illuminated

Today's Extremes

State Highs State Lows

Community

WunderPhotos

Upload Photos

1,935,848 photos uploaded!

WunderBlog® & News

Nearby

Air Quality

  Air Quality AQ Index Pollutant
Not available.

Snow Depth

Station Depth Elevation

Earthquake Activity

City Distance Mag. Time & Date
Minimum magnitude displayed is 2.5.

Coastal Water Temperatures

Place Temperature

Stations

Nearby Weather Stations

Station Location Temp. Windchill Dew Point Humidity Wind Precip. Elev Updated Type
                   

Watches & Warnings

There are currently no watches in effect.